Time;durP1;ratioP1;P1;durP2;ratioP2;P2;SDS_P1;SDS_P2;PMS_P1;PMS_P2;Temp;Humidity;BMP_temperature;BMP_pressure;BME280_temperature;BME280_humidity;BME280_pressure;Samples;Min_cycle;Max_cycle;Signal;HPM_P1;HPM_P2
2021/09/04 00:01:06;;;;;;;6.60;5.63;;;18.90;99.90;;;;;;5005239;28;20473;-75
2021/09/04 00:03:34;;;;;;;5.63;4.83;;;18.90;99.90;;;;;;5008042;28;20449;-77
2021/09/04 00:06:02;;;;;;;5.90;5.30;;;18.80;99.90;;;;;;5000759;28;20476;-73
2021/09/04 00:08:30;;;;;;;6.03;4.80;;;18.80;99.90;;;;;;5007224;28;20519;-74
2021/09/04 00:11:00;;;;;;;6.00;5.40;;;18.80;99.90;;;;;;5007465;28;20480;-76
2021/09/04 00:13:28;;;;;;;7.17;5.57;;;18.80;99.90;;;;;;5004669;28;21095;-75
2021/09/04 00:15:56;;;;;;;5.37;4.37;;;18.70;99.90;;;;;;5004928;28;20453;-76
2021/09/04 00:18:29;;;;;;;6.60;5.60;;;18.70;99.90;;;;;;5005185;28;21041;-75
2021/09/04 00:20:57;;;;;;;5.83;4.80;;;18.70;99.90;;;;;;5004227;28;20493;-75
2021/09/04 00:23:25;;;;;;;6.43;5.37;;;18.70;99.90;;;;;;5006773;28;20459;-75
2021/09/04 00:25:53;;;;;;;7.27;5.20;;;18.70;99.90;;;;;;5004871;28;20445;-75
2021/09/04 00:28:23;;;;;;;7.37;5.43;;;18.60;99.90;;;;;;5003894;28;20477;-74
2021/09/04 00:30:51;;;;;;;5.50;4.90;;;18.60;99.90;;;;;;4997280;28;20552;-76
2021/09/04 00:33:19;;;;;;;7.67;4.43;;;18.60;99.90;;;;;;5006334;28;20525;-75
2021/09/04 00:35:47;;;;;;;6.93;5.17;;;18.50;99.90;;;;;;5005488;28;20450;-76
2021/09/04 00:38:15;;;;;;;5.90;5.00;;;18.60;99.90;;;;;;5006019;28;20449;-75
2021/09/04 00:40:43;;;;;;;5.80;4.77;;;18.60;99.90;;;;;;5006484;28;21268;-75
2021/09/04 00:43:12;;;;;;;5.03;4.53;;;18.60;99.90;;;;;;5006867;28;20495;-76
2021/09/04 00:45:41;;;;;;;5.80;4.60;;;18.60;99.90;;;;;;5004511;28;20456;-73
2021/09/04 00:48:09;;;;;;;5.17;4.53;;;18.50;99.90;;;;;;5001087;28;20477;-76
2021/09/04 00:50:38;;;;;;;5.20;4.70;;;18.50;99.90;;;;;;5007370;28;20480;-76
2021/09/04 00:53:06;;;;;;;5.40;4.53;;;18.40;99.90;;;;;;5007090;28;21003;-76
2021/09/04 00:55:34;;;;;;;6.03;4.90;;;18.40;99.90;;;;;;5006627;28;21006;-74
2021/09/04 00:58:02;;;;;;;5.40;4.77;;;18.40;99.90;;;;;;5007908;28;20453;-74
2021/09/04 01:00:30;;;;;;;5.80;5.30;;;18.40;99.90;;;;;;5004092;28;20519;-76
2021/09/04 01:03:00;;;;;;;7.50;4.80;;;18.40;99.90;;;;;;5005482;28;20468;-77
2021/09/04 01:05:28;;;;;;;5.10;4.07;;;18.40;99.90;;;;;;5003937;28;20527;-75
2021/09/04 01:07:57;;;;;;;5.30;4.80;;;18.40;99.90;;;;;;5007775;28;20480;-75
2021/09/04 01:10:26;;;;;;;4.23;3.77;;;18.40;99.90;;;;;;5006700;28;20461;-76
2021/09/04 01:12:55;;;;;;;5.20;4.70;;;18.40;99.90;;;;;;4997569;28;20529;-74
2021/09/04 01:15:23;;;;;;;4.80;3.90;;;18.30;99.90;;;;;;5005897;28;20545;-76
2021/09/04 01:17:51;;;;;;;4.80;4.30;;;18.30;99.90;;;;;;5010306;28;20449;-75
2021/09/04 01:20:20;;;;;;;5.10;4.70;;;18.30;99.90;;;;;;5009922;28;20464;-74
2021/09/04 01:22:48;;;;;;;4.50;4.10;;;18.20;99.90;;;;;;5010738;28;20441;-76
2021/09/04 01:25:23;;;;;;;4.13;3.73;;;18.30;99.90;;;;;;5008672;28;20980;-75
2021/09/04 01:27:53;;;;;;;6.13;5.53;;;18.20;99.90;;;;;;4997663;28;20495;-76
2021/09/04 01:30:21;;;;;;;5.87;4.43;;;18.10;99.90;;;;;;5008281;28;20453;-75
2021/09/04 01:32:49;;;;;;;6.20;4.80;;;18.20;99.90;;;;;;5011115;28;20461;-75
2021/09/04 01:35:20;;;;;;;7.40;5.03;;;18.10;99.90;;;;;;5008912;28;20457;-76
2021/09/04 01:37:49;;;;;;;6.27;5.67;;;18.10;99.90;;;;;;5006150;28;20510;-75
2021/09/04 01:40:17;;;;;;;6.80;6.10;;;18.10;99.90;;;;;;5009260;28;20457;-73
2021/09/04 01:42:47;;;;;;;7.57;6.50;;;18.10;99.90;;;;;;5004978;28;20465;-75
2021/09/04 01:45:16;;;;;;;7.40;5.93;;;18.10;99.90;;;;;;5008020;28;20524;-76
2021/09/04 01:47:44;;;;;;;7.80;6.77;;;18.10;99.90;;;;;;5011221;28;20535;-76
2021/09/04 01:50:14;;;;;;;8.23;6.93;;;18.10;99.90;;;;;;5009342;28;20505;-75
2021/09/04 01:52:43;;;;;;;7.00;6.07;;;18.10;99.90;;;;;;5008821;28;20492;-73
2021/09/04 01:55:14;;;;;;;8.43;7.37;;;18.00;99.90;;;;;;5007920;28;20968;-76
2021/09/04 01:57:42;;;;;;;7.67;6.97;;;17.90;99.90;;;;;;5002596;28;20948;-75
2021/09/04 02:00:14;;;;;;;6.50;5.70;;;18.00;99.90;;;;;;5007802;28;20516;-76
2021/09/04 02:02:44;;;;;;;6.87;6.17;;;18.00;99.90;;;;;;5007983;28;20453;-75
2021/09/04 02:05:13;;;;;;;6.17;5.60;;;18.00;99.90;;;;;;5006932;28;20483;-75
2021/09/04 02:07:41;;;;;;;6.40;5.70;;;17.90;99.90;;;;;;5010652;28;20476;-74
2021/09/04 02:10:10;;;;;;;8.83;5.67;;;17.90;99.90;;;;;;5008769;28;21010;-75
2021/09/04 02:12:38;;;;;;;6.03;5.47;;;17.90;99.90;;;;;;5009667;28;20472;-75
2021/09/04 02:15:09;;;;;;;7.80;6.60;;;17.90;99.90;;;;;;5008749;28;20476;-73
2021/09/04 02:17:37;;;;;;;7.37;5.77;;;18.00;99.90;;;;;;5008297;28;20527;-76
2021/09/04 02:20:08;;;;;;;5.77;5.27;;;17.90;99.90;;;;;;5008813;28;20448;-74
2021/09/04 02:22:36;;;;;;;5.60;4.87;;;17.80;99.90;;;;;;5008605;28;20523;-75
2021/09/04 02:25:05;;;;;;;5.63;5.10;;;17.80;99.90;;;;;;5008978;28;20940;-75
2021/09/04 02:27:35;;;;;;;5.93;5.43;;;17.80;99.90;;;;;;5010411;28;20481;-74
2021/09/04 02:30:03;;;;;;;6.70;5.97;;;17.90;99.90;;;;;;5008830;28;20493;-75
2021/09/04 02:32:31;;;;;;;6.10;5.10;;;17.90;99.90;;;;;;5009539;28;20500;-74
2021/09/04 02:35:00;;;;;;;7.50;5.33;;;17.80;99.90;;;;;;5008026;28;20469;-74
2021/09/04 02:37:29;;;;;;;6.33;5.70;;;17.80;99.90;;;;;;4999931;28;20458;-75
2021/09/04 02:39:57;;;;;;;7.07;5.67;;;17.80;99.90;;;;;;5005342;28;20457;-75
2021/09/04 02:42:26;;;;;;;6.20;4.80;;;17.70;99.90;;;;;;5009887;28;20480;-75
2021/09/04 02:44:54;;;;;;;7.07;4.90;;;17.70;99.90;;;;;;5009304;28;20453;-75
2021/09/04 02:47:22;;;;;;;8.03;4.70;;;17.70;99.90;;;;;;5008823;28;20452;-75
2021/09/04 02:49:50;;;;;;;7.10;5.70;;;17.70;99.90;;;;;;5008272;28;20486;-75
2021/09/04 02:52:18;;;;;;;6.77;6.07;;;17.60;99.90;;;;;;5009014;28;20542;-75
2021/09/04 02:54:47;;;;;;;6.63;5.70;;;17.60;99.90;;;;;;5009791;28;20460;-76
2021/09/04 02:57:16;;;;;;;5.03;4.53;;;17.60;99.90;;;;;;5008672;28;20492;-75
2021/09/04 02:59:44;;;;;;;5.20;4.60;;;17.60;99.90;;;;;;5005656;28;20500;-74
2021/09/04 03:02:13;;;;;;;5.63;4.97;;;17.60;99.90;;;;;;5005534;28;20826;-75
2021/09/04 03:04:42;;;;;;;6.20;5.63;;;17.60;99.90;;;;;;5005238;28;20452;-74
2021/09/04 03:07:10;;;;;;;5.83;5.23;;;17.70;99.90;;;;;;5002155;28;20457;-75
2021/09/04 03:09:38;;;;;;;6.83;5.20;;;17.70;99.90;;;;;;5003251;28;20472;-75
2021/09/04 03:12:08;;;;;;;5.73;4.90;;;17.60;99.90;;;;;;5007469;28;20523;-76
2021/09/04 03:14:36;;;;;;;5.20;4.63;;;17.60;99.90;;;;;;5009326;28;20456;-74
2021/09/04 03:17:04;;;;;;;5.50;5.00;;;17.60;99.90;;;;;;5007361;28;20511;-75
2021/09/04 03:19:32;;;;;;;5.03;4.63;;;17.50;99.90;;;;;;5005465;28;20468;-76
2021/09/04 03:22:02;;;;;;;5.83;5.20;;;17.50;99.90;;;;;;5000655;28;20547;-75
2021/09/04 03:24:30;;;;;;;5.10;4.60;;;17.50;99.90;;;;;;5007428;28;20460;-76
2021/09/04 03:26:58;;;;;;;5.80;5.30;;;17.50;99.90;;;;;;5007703;28;20951;-74
2021/09/04 03:29:27;;;;;;;5.33;4.83;;;17.40;99.90;;;;;;5005703;28;20911;-74
2021/09/04 03:31:56;;;;;;;5.93;4.80;;;17.40;99.90;;;;;;5006377;28;20539;-75
2021/09/04 03:34:24;;;;;;;5.57;4.60;;;17.40;99.90;;;;;;5008293;28;20460;-76
2021/09/04 03:36:52;;;;;;;5.90;5.30;;;17.40;99.90;;;;;;5006035;28;20464;-73
2021/09/04 03:39:20;;;;;;;5.70;5.00;;;17.40;99.90;;;;;;5008005;28;20457;-75
2021/09/04 03:41:48;;;;;;;5.83;5.23;;;17.40;99.90;;;;;;5008113;28;20534;-74
2021/09/04 03:44:16;;;;;;;6.00;4.73;;;17.40;99.90;;;;;;5008601;28;20465;-75
2021/09/04 03:46:46;;;;;;;10.43;5.87;;;17.40;99.90;;;;;;5008243;28;20457;-75
2021/09/04 03:49:14;;;;;;;5.43;4.93;;;17.40;99.90;;;;;;5008428;28;21208;-76
2021/09/04 03:51:42;;;;;;;5.87;5.33;;;17.30;99.90;;;;;;5007816;28;21227;-75
2021/09/04 03:54:10;;;;;;;4.90;4.50;;;17.30;99.90;;;;;;5006656;28;20828;-76
2021/09/04 03:56:38;;;;;;;5.70;4.80;;;17.30;99.90;;;;;;5006531;28;21372;-76
2021/09/04 03:59:06;;;;;;;5.77;4.83;;;17.30;99.90;;;;;;5002525;28;20461;-74
2021/09/04 04:01:34;;;;;;;6.47;5.23;;;17.30;99.90;;;;;;5006301;28;20476;-76
2021/09/04 04:04:04;;;;;;;8.00;4.97;;;17.30;99.90;;;;;;5005733;28;20465;-74
2021/09/04 04:06:32;;;;;;;6.47;5.47;;;17.30;99.90;;;;;;5008328;28;20836;-76
2021/09/04 04:09:01;;;;;;;8.43;4.83;;;17.30;99.90;;;;;;5006541;28;21208;-76
2021/09/04 04:11:29;;;;;;;4.73;4.33;;;17.30;99.90;;;;;;5006309;28;20494;-78
2021/09/04 04:13:57;;;;;;;5.27;4.77;;;17.30;99.90;;;;;;5007730;28;20485;-80
2021/09/04 04:16:25;;;;;;;7.03;5.87;;;17.30;99.90;;;;;;5000739;28;20971;-77
2021/09/04 04:18:53;;;;;;;6.33;5.37;;;17.30;99.90;;;;;;5008197;28;20815;-79
2021/09/04 04:21:23;;;;;;;6.50;5.27;;;17.20;99.90;;;;;;4996224;28;20484;-76
2021/09/04 04:23:51;;;;;;;5.43;4.53;;;17.20;99.90;;;;;;5008188;28;20449;-77
2021/09/04 04:26:19;;;;;;;5.57;4.40;;;17.20;99.90;;;;;;5004596;28;20507;-77
2021/09/04 04:28:47;;;;;;;5.50;5.00;;;17.20;99.90;;;;;;5006742;28;20563;-75
2021/09/04 04:31:15;;;;;;;5.60;5.00;;;17.20;99.90;;;;;;5007014;28;21011;-77
2021/09/04 04:33:43;;;;;;;4.87;4.37;;;17.10;99.90;;;;;;5000565;28;20551;-78
2021/09/04 04:36:11;;;;;;;5.80;4.30;;;17.10;99.90;;;;;;4991560;28;20461;-78
2021/09/04 04:38:41;;;;;;;5.00;4.50;;;17.10;99.90;;;;;;5004309;28;20465;-76
2021/09/04 04:41:09;;;;;;;5.43;4.70;;;17.10;99.90;;;;;;5003497;28;20489;-78
2021/09/04 04:43:37;;;;;;;5.77;4.03;;;17.10;99.90;;;;;;5004805;28;21106;-80
2021/09/04 04:46:05;;;;;;;5.20;4.40;;;17.10;99.90;;;;;;5004462;28;20460;-80
2021/09/04 04:48:34;;;;;;;5.63;4.97;;;17.10;99.90;;;;;;4999945;28;21184;-79
2021/09/04 04:51:02;;;;;;;4.47;4.03;;;17.10;99.90;;;;;;5003354;28;20901;-79
2021/09/04 04:53:30;;;;;;;6.13;4.60;;;17.10;99.90;;;;;;5006876;28;20448;-79
2021/09/04 04:56:02;;;;;;;4.47;4.07;;;17.00;99.90;;;;;;4998619;28;20469;-79
2021/09/04 04:58:30;;;;;;;6.30;5.17;;;17.00;99.90;;;;;;5007810;28;20456;-78
2021/09/04 05:00:59;;;;;;;4.70;4.20;;;17.10;99.90;;;;;;5007832;28;20475;-79
2021/09/04 05:03:27;;;;;;;6.30;4.60;;;17.10;99.90;;;;;;5005894;28;20515;-79
2021/09/04 05:05:56;;;;;;;5.60;4.97;;;17.10;99.90;;;;;;5007238;28;20452;-78
2021/09/04 05:08:24;;;;;;;5.53;4.87;;;17.00;99.90;;;;;;5007633;28;21138;-79
2021/09/04 05:10:52;;;;;;;4.50;4.10;;;17.00;99.90;;;;;;5007602;28;20570;-79
2021/09/04 05:13:22;;;;;;;5.43;4.73;;;17.00;99.90;;;;;;5008609;28;20464;-79
2021/09/04 05:15:50;;;;;;;5.00;4.50;;;17.00;99.90;;;;;;5008743;28;20530;-79
2021/09/04 05:18:18;;;;;;;5.10;4.20;;;17.00;99.90;;;;;;5007466;28;20458;-79
2021/09/04 05:20:46;;;;;;;5.17;4.67;;;17.10;99.90;;;;;;5007829;28;20488;-77
2021/09/04 05:23:15;;;;;;;6.10;4.80;;;17.00;99.90;;;;;;5009004;28;20440;-78
2021/09/04 05:25:43;;;;;;;5.47;4.97;;;17.00;99.90;;;;;;5008559;28;20459;-78
2021/09/04 05:28:11;;;;;;;5.27;4.77;;;17.00;99.90;;;;;;5001464;28;20460;-78
2021/09/04 05:30:40;;;;;;;5.93;5.20;;;17.10;99.90;;;;;;5004429;28;20489;-79
2021/09/04 05:33:09;;;;;;;7.07;5.37;;;17.00;99.90;;;;;;5005965;28;20459;-79
2021/09/04 05:35:37;;;;;;;6.40;4.67;;;17.10;99.90;;;;;;5009117;28;20437;-79
2021/09/04 05:38:05;;;;;;;5.87;5.07;;;17.10;99.90;;;;;;5008163;28;21292;-79
2021/09/04 05:40:33;;;;;;;7.80;6.60;;;17.10;99.90;;;;;;5008117;28;20949;-78
2021/09/04 05:43:01;;;;;;;11.60;7.30;;;17.10;99.90;;;;;;5008403;28;20527;-79
2021/09/04 05:45:33;;;;;;;12.43;7.93;;;17.10;99.90;;;;;;5006977;28;20464;-78
2021/09/04 05:48:03;;;;;;;10.43;7.17;;;17.10;1.00;;;;;;5008965;28;20451;-79
2021/09/04 05:50:31;;;;;;;8.97;6.20;;;17.10;1.00;;;;;;5006430;28;20537;-78
2021/09/04 05:52:59;;;;;;;9.50;6.93;;;17.10;1.00;;;;;;5007339;28;20463;-80
2021/09/04 05:55:27;;;;;;;10.97;7.40;;;17.10;1.00;;;;;;5009220;28;20812;-79
2021/09/04 05:57:55;;;;;;;9.50;6.70;;;17.10;1.00;;;;;;5009528;28;20483;-79
2021/09/04 06:00:24;;;;;;;7.27;6.57;;;17.20;1.00;;;;;;5011475;28;20437;-79
2021/09/04 06:02:52;;;;;;;8.13;6.77;;;17.20;1.00;;;;;;5007155;28;20451;-78
2021/09/04 06:05:21;;;;;;;9.17;6.97;;;17.20;1.00;;;;;;5012360;28;20466;-77
2021/09/04 06:07:50;;;;;;;6.63;5.97;;;17.30;1.00;;;;;;5010688;28;20460;-78
2021/09/04 06:10:18;;;;;;;10.03;6.20;;;17.40;1.00;;;;;;5011810;28;20516;-78
2021/09/04 06:12:46;;;;;;;8.30;6.13;;;17.30;1.00;;;;;;5011455;28;20446;-79
2021/09/04 06:15:14;;;;;;;6.23;5.40;;;17.30;1.00;;;;;;5012442;28;20456;-79
2021/09/04 06:17:42;;;;;;;5.13;4.57;;;17.30;1.00;;;;;;5010443;28;20900;-78
2021/09/04 06:20:10;;;;;;;6.47;5.87;;;17.30;1.00;;;;;;5009484;28;20845;-80
2021/09/04 06:22:40;;;;;;;7.20;5.37;;;17.30;1.00;;;;;;5009754;28;20492;-78
2021/09/04 06:25:09;;;;;;;5.20;4.70;;;17.40;1.00;;;;;;5010615;28;20508;-78
2021/09/04 06:27:37;;;;;;;7.20;6.37;;;17.50;1.00;;;;;;5010225;28;20461;-79
2021/09/04 06:30:08;;;;;;;6.70;5.07;;;17.70;1.00;;;;;;5002422;28;20485;-78
2021/09/04 06:32:36;;;;;;;8.03;5.67;;;17.90;1.00;;;;;;5010376;28;20477;-79
2021/09/04 06:35:05;;;;;;;5.73;5.23;;;17.90;1.00;;;;;;5009075;28;20593;-79
2021/09/04 06:37:34;;;;;;;7.03;5.63;;;18.00;1.00;;;;;;5009184;28;20819;-78
2021/09/04 06:40:04;;;;;;;8.03;6.60;;;18.10;1.00;;;;;;5010609;28;20453;-78
2021/09/04 06:42:32;;;;;;;8.37;5.67;;;18.10;99.90;;;;;;5009090;28;20485;-80
2021/09/04 06:45:00;;;;;;;7.13;5.87;;;18.10;1.00;;;;;;5010713;28;21364;-79
2021/09/04 06:47:29;;;;;;;7.40;5.90;;;18.20;1.00;;;;;;5001634;28;20489;-79
2021/09/04 06:49:57;;;;;;;6.60;5.87;;;18.20;1.00;;;;;;5009067;28;20980;-79
2021/09/04 06:52:25;;;;;;;7.60;5.87;;;18.30;1.00;;;;;;5010937;28;20486;-79
2021/09/04 06:54:53;;;;;;;7.80;6.27;;;18.30;1.00;;;;;;5011008;28;20531;-80
2021/09/04 06:57:23;;;;;;;6.07;5.47;;;18.30;1.00;;;;;;5010664;28;21211;-79
2021/09/04 06:59:51;;;;;;;6.40;5.40;;;18.40;1.00;;;;;;5009507;28;20993;-78
2021/09/04 07:02:19;;;;;;;6.27;5.77;;;18.50;1.00;;;;;;5007978;28;20473;-78
2021/09/04 07:04:47;;;;;;;6.30;5.70;;;18.50;1.00;;;;;;5010107;28;20458;-79
2021/09/04 07:07:16;;;;;;;7.20;5.70;;;18.50;1.00;;;;;;5010413;28;20449;-79
2021/09/04 07:09:44;;;;;;;10.83;7.23;;;18.60;1.00;;;;;;5009162;28;20813;-78
2021/09/04 07:12:12;;;;;;;7.70;5.73;;;18.70;1.00;;;;;;5011112;28;20477;-78
2021/09/04 07:14:41;;;;;;;9.10;5.93;;;18.70;1.00;;;;;;5011038;28;20457;-79
2021/09/04 07:17:09;;;;;;;7.67;6.13;;;18.70;1.00;;;;;;5010156;28;20442;-78
2021/09/04 07:19:38;;;;;;;7.37;6.67;;;18.80;1.00;;;;;;5010146;28;20464;-78
2021/09/04 07:22:06;;;;;;;7.63;6.33;;;18.90;1.00;;;;;;5009538;28;20888;-79
2021/09/04 07:24:34;;;;;;;7.50;6.17;;;19.00;1.00;;;;;;5008092;28;20492;-78
2021/09/04 07:27:02;;;;;;;6.90;5.60;;;19.10;1.00;;;;;;5010084;28;20445;-78
2021/09/04 07:29:30;;;;;;;7.23;5.97;;;19.20;1.00;;;;;;5008545;28;20467;-79
2021/09/04 07:32:00;;;;;;;6.60;5.83;;;19.30;1.00;;;;;;5009843;28;20552;-79
2021/09/04 07:34:29;;;;;;;6.90;5.90;;;19.30;1.00;;;;;;5009040;28;20499;-79
2021/09/04 07:36:57;;;;;;;7.80;5.80;;;19.40;1.00;;;;;;5010556;28;20441;-79
2021/09/04 07:39:25;;;;;;;6.93;5.53;;;19.40;1.00;;;;;;5007628;28;20449;-77
2021/09/04 07:41:53;;;;;;;5.73;5.03;;;19.50;1.00;;;;;;5009958;28;20548;-79
2021/09/04 07:44:22;;;;;;;6.10;4.80;;;19.60;1.00;;;;;;4991406;28;20458;-79
2021/09/04 07:46:50;;;;;;;5.63;4.97;;;19.80;1.00;;;;;;5002022;28;21267;-79
2021/09/04 07:49:19;;;;;;;8.90;5.57;;;20.00;99.90;;;;;;5007840;28;20453;-79
2021/09/04 07:51:48;;;;;;;5.63;4.40;;;20.10;99.90;;;;;;5009217;28;20512;-79
2021/09/04 07:54:16;;;;;;;6.30;5.10;;;20.20;99.90;;;;;;5010013;28;20809;-79
2021/09/04 07:56:44;;;;;;;5.80;4.80;;;20.30;99.90;;;;;;5010535;28;20496;-79
2021/09/04 07:59:12;;;;;;;6.13;4.27;;;20.50;99.90;;;;;;5007191;28;20838;-79
2021/09/04 08:01:40;;;;;;;4.20;3.80;;;20.60;99.90;;;;;;5006323;28;20461;-79
2021/09/04 08:04:09;;;;;;;5.10;4.63;;;20.60;99.90;;;;;;5008785;28;20464;-79
2021/09/04 08:06:38;;;;;;;4.90;4.50;;;20.80;1.00;;;;;;5010178;28;20505;-79
2021/09/04 08:09:06;;;;;;;6.13;5.13;;;20.90;99.90;;;;;;5008115;28;20482;-77
2021/09/04 08:11:34;;;;;;;5.57;4.93;;;21.00;99.90;;;;;;5010361;28;20509;-78
2021/09/04 08:14:03;;;;;;;5.57;4.20;;;21.00;99.90;;;;;;5008839;28;20978;-78
2021/09/04 08:16:31;;;;;;;5.87;3.47;;;21.10;99.90;;;;;;5009909;28;20953;-79
2021/09/04 08:18:59;;;;;;;4.90;3.50;;;21.20;99.90;;;;;;5008267;28;20493;-79
2021/09/04 08:21:27;;;;;;;8.60;4.07;;;21.30;99.90;;;;;;5008298;28;21027;-79
2021/09/04 08:23:57;;;;;;;5.10;4.60;;;21.30;99.90;;;;;;5008806;28;20463;-79
2021/09/04 08:26:25;;;;;;;4.37;3.97;;;21.40;99.90;;;;;;5008230;28;20948;-77
2021/09/04 08:28:53;;;;;;;4.90;3.90;;;21.40;99.90;;;;;;5006824;28;20515;-77
2021/09/04 08:31:22;;;;;;;4.83;4.20;;;21.40;99.90;;;;;;5009194;28;20584;-79
2021/09/04 08:33:50;;;;;;;3.83;3.40;;;21.40;99.90;;;;;;5007964;28;20449;-79
2021/09/04 08:36:18;;;;;;;5.13;3.90;;;21.50;99.90;;;;;;5009114;28;20444;-78
2021/09/04 08:38:46;;;;;;;5.30;3.90;;;21.60;99.90;;;;;;5008455;28;20451;-79
2021/09/04 08:41:16;;;;;;;5.70;3.93;;;21.60;99.90;;;;;;5008589;28;20457;-78
2021/09/04 08:43:45;;;;;;;4.13;3.73;;;21.70;99.90;;;;;;5008493;28;20440;-79
2021/09/04 08:46:15;;;;;;;4.77;4.27;;;21.70;99.90;;;;;;5003904;28;20465;-79
2021/09/04 08:48:43;;;;;;;4.30;3.90;;;21.80;99.90;;;;;;5004780;28;20914;-79
2021/09/04 08:51:11;;;;;;;5.20;4.40;;;21.80;99.90;;;;;;5008016;28;20551;-79
2021/09/04 08:53:42;;;;;;;4.30;3.90;;;21.90;99.90;;;;;;5008204;28;20437;-78
2021/09/04 08:56:11;;;;;;;4.70;3.73;;;21.90;99.90;;;;;;5008913;28;20449;-78
2021/09/04 08:58:40;;;;;;;6.30;4.30;;;22.00;99.90;;;;;;5008096;28;20515;-79
2021/09/04 09:01:16;;;;;;;4.33;3.47;;;22.00;99.90;;;;;;5007705;28;20552;-80
2021/09/04 09:03:46;;;;;;;3.40;3.07;;;22.00;99.90;;;;;;5005544;28;20452;-79
2021/09/04 09:06:32;;;;;;;5.03;3.80;;;22.10;99.90;;;;;;5006465;28;20462;-79
2021/09/04 09:09:14;;;;;;;4.23;3.83;;;22.20;99.90;;;;;;5008394;28;20460;-79
2021/09/04 09:11:43;;;;;;;4.10;3.70;;;22.20;99.90;;;;;;5006398;28;20861;-77
2021/09/04 09:14:12;;;;;;;4.10;3.70;;;22.30;99.90;;;;;;5008703;28;20492;-80
2021/09/04 09:16:56;;;;;;;4.50;3.27;;;22.30;99.90;;;;;;5008087;28;20441;-79
2021/09/04 09:19:27;;;;;;;4.87;4.37;;;22.30;99.90;;;;;;5008641;28;20440;-79
2021/09/04 09:21:57;;;;;;;3.73;3.33;;;22.30;99.90;;;;;;5007705;28;21009;-79
2021/09/04 09:24:27;;;;;;;3.77;3.43;;;22.30;99.90;;;;;;5008466;28;20876;-79
2021/09/04 09:26:57;;;;;;;4.57;3.40;;;22.40;99.90;;;;;;5007802;28;20850;-79
2021/09/04 09:29:30;;;;;;;4.47;3.07;;;22.50;99.90;;;;;;5007859;28;20457;-78
2021/09/04 09:32:02;;;;;;;3.77;3.40;;;22.60;99.90;;;;;;5008170;28;20952;-79
2021/09/04 09:34:31;;;;;;;4.60;4.00;;;22.60;99.90;;;;;;5012241;28;20457;-79
2021/09/04 09:37:01;;;;;;;3.73;3.40;;;22.60;99.90;;;;;;5009885;28;20508;-79
2021/09/04 09:39:32;;;;;;;3.27;2.77;;;22.60;99.90;;;;;;5011800;28;20540;-79
2021/09/04 09:42:01;;;;;;;3.40;2.73;;;22.70;99.90;;;;;;5010531;28;20477;-80
2021/09/04 09:44:32;;;;;;;3.70;3.30;;;22.80;99.90;;;;;;5012626;28;20441;-80
2021/09/04 09:47:01;;;;;;;4.43;3.80;;;22.80;99.90;;;;;;5011520;28;20465;-80
2021/09/04 09:49:31;;;;;;;4.00;3.13;;;22.80;99.90;;;;;;5003972;28;20508;-80
2021/09/04 09:52:00;;;;;;;4.07;3.77;;;22.80;99.90;;;;;;5009055;28;20930;-79
2021/09/04 09:54:31;;;;;;;3.50;3.17;;;22.80;99.90;;;;;;5009033;28;20611;-79
2021/09/04 09:57:01;;;;;;;4.63;4.23;;;22.80;99.90;;;;;;4990761;28;20504;-79
2021/09/04 09:59:31;;;;;;;3.40;3.10;;;22.90;99.90;;;;;;4990779;28;20988;-78
2021/09/04 10:02:03;;;;;;;3.90;3.60;;;22.90;99.90;;;;;;5006190;28;20519;-79
2021/09/04 10:04:37;;;;;;;3.40;3.10;;;23.00;99.90;;;;;;5011416;28;20475;-80
2021/09/04 10:07:07;;;;;;;4.70;3.07;;;23.00;99.90;;;;;;5011627;28;20458;-79
2021/09/04 10:09:37;;;;;;;3.70;3.40;;;23.10;99.90;;;;;;5009378;28;20829;-79
2021/09/04 10:12:07;;;;;;;6.03;3.33;;;23.20;99.90;;;;;;5010273;28;20496;-79
2021/09/04 10:14:37;;;;;;;3.57;3.27;;;23.10;99.90;;;;;;5011959;28;20473;-78
2021/09/04 10:17:06;;;;;;;3.70;3.40;;;23.20;99.90;;;;;;5007130;28;20821;-80
2021/09/04 10:19:36;;;;;;;3.20;2.90;;;23.30;99.90;;;;;;5010795;28;20791;-80
2021/09/04 10:22:07;;;;;;;4.43;3.80;;;23.30;99.90;;;;;;5011145;28;20480;-80
2021/09/04 10:24:50;;;;;;;3.60;3.30;;;23.40;99.90;;;;;;5011598;28;20507;-80
2021/09/04 10:27:31;;;;;;;3.87;3.50;;;23.40;99.90;;;;;;5011936;28;20511;-79
2021/09/04 10:30:21;;;;;;;6.40;3.20;;;23.40;99.90;;;;;;5008653;28;20559;-79
2021/09/04 10:33:01;;;;;;;4.40;3.00;;;23.50;99.90;;;;;;5009562;28;20481;-79
2021/09/04 10:35:44;;;;;;;2.97;2.77;;;23.50;99.90;;;;;;5009378;28;20473;-80
2021/09/04 10:38:42;;;;;;;3.73;3.43;;;23.60;99.90;;;;;;5011420;28;20441;-79
2021/09/04 10:41:24;;;;;;;3.27;3.07;;;23.70;99.90;;;;;;4968723;28;20578;-80
2021/09/04 10:43:58;;;;;;;4.30;3.10;;;23.70;99.90;;;;;;5005511;28;20468;-79
2021/09/04 10:46:29;;;;;;;2.87;2.57;;;23.80;99.90;;;;;;5011215;28;20476;-79
2021/09/04 10:49:03;;;;;;;2.57;2.37;;;23.80;99.90;;;;;;5010261;28;20489;-80
2021/09/04 10:51:48;;;;;;;2.70;2.50;;;23.90;99.90;;;;;;5010482;28;20519;-79
2021/09/04 10:54:39;;;;;;;2.50;2.30;;;23.90;99.90;;;;;;5011021;28;20480;-79
2021/09/04 10:57:17;;;;;;;2.93;2.70;;;24.00;99.90;;;;;;5011191;28;21004;-80
2021/09/04 10:59:59;;;;;;;3.27;3.00;;;24.00;99.90;;;;;;5009499;28;20465;-79
2021/09/04 11:02:49;;;;;;;3.73;3.40;;;24.00;99.90;;;;;;5007539;28;20472;-79
2021/09/04 11:05:49;;;;;;;3.57;3.27;;;24.10;99.90;;;;;;5009157;28;20445;-79
2021/09/04 11:08:33;;;;;;;2.57;2.37;;;24.00;99.90;;;;;;5008257;28;20560;-79
2021/09/04 11:11:31;;;;;;;3.10;2.80;;;24.10;99.90;;;;;;5004239;28;20511;-78
2021/09/04 11:14:01;;;;;;;6.50;3.83;;;24.10;99.90;;;;;;5003745;28;20512;-80
2021/09/04 11:16:47;;;;;;;8.17;5.60;;;24.20;99.90;;;;;;5010668;28;20519;-79
2021/09/04 11:19:22;;;;;;;3.40;3.10;;;24.20;99.90;;;;;;5001417;28;20493;-79
2021/09/04 11:22:06;;;;;;;2.80;2.60;;;24.30;99.90;;;;;;5005398;28;20488;-80
2021/09/04 11:24:36;;;;;;;2.50;2.23;;;24.40;99.90;;;;;;5008392;28;20461;-79
2021/09/04 11:27:07;;;;;;;3.47;2.60;;;24.40;99.90;;;;;;5003520;28;20452;-79
2021/09/04 11:29:44;;;;;;;3.13;2.43;;;24.40;99.90;;;;;;5008718;28;20469;-79
2021/09/04 11:32:13;;;;;;;2.40;2.20;;;24.40;99.90;;;;;;5009423;28;20481;-79
2021/09/04 11:34:49;;;;;;;3.27;2.70;;;24.40;99.90;;;;;;5008217;28;20450;-79
2021/09/04 11:37:22;;;;;;;2.80;2.33;;;24.40;99.90;;;;;;5005835;28;20932;-79
2021/09/04 11:39:52;;;;;;;2.20;2.00;;;24.40;99.90;;;;;;5000301;28;20461;-80
2021/09/04 11:42:22;;;;;;;2.47;2.27;;;24.30;99.90;;;;;;4996710;28;20473;-77
2021/09/04 11:44:52;;;;;;;2.50;2.20;;;24.30;99.90;;;;;;4998114;28;20973;-79
2021/09/04 11:47:22;;;;;;;2.13;1.90;;;24.40;99.90;;;;;;5009565;28;20848;-79
2021/09/04 11:49:52;;;;;;;2.83;2.53;;;24.40;99.90;;;;;;5009021;28;20453;-80
2021/09/04 11:52:24;;;;;;;2.77;2.57;;;24.50;99.90;;;;;;5009303;28;20466;-79
2021/09/04 11:55:04;;;;;;;2.33;2.13;;;24.50;99.90;;;;;;5009398;28;20529;-79
2021/09/04 11:57:34;;;;;;;3.50;2.50;;;24.70;99.90;;;;;;5008623;28;20455;-79
2021/09/04 12:00:05;;;;;;;3.07;2.00;;;24.70;99.90;;;;;;5006170;28;20906;-79
2021/09/04 12:02:35;;;;;;;3.03;2.13;;;24.70;99.90;;;;;;5004135;28;20481;-78
2021/09/04 12:05:07;;;;;;;2.50;2.30;;;24.80;99.90;;;;;;5009983;28;20440;-80
2021/09/04 12:07:37;;;;;;;3.73;2.50;;;24.80;99.90;;;;;;5008890;28;20443;-81
2021/09/04 12:10:08;;;;;;;2.40;2.10;;;24.70;99.90;;;;;;5009368;28;20889;-79
2021/09/04 12:12:37;;;;;;;2.57;2.37;;;24.70;99.90;;;;;;5008606;28;20463;-78
2021/09/04 12:15:07;;;;;;;5.70;1.70;;;24.80;99.90;;;;;;5009799;28;20449;-79
2021/09/04 12:17:46;;;;;;;2.33;2.13;;;24.80;99.90;;;;;;5008985;28;20429;-79
2021/09/04 12:20:17;;;;;;;2.30;2.10;;;24.90;99.90;;;;;;5008513;28;20452;-79
2021/09/04 12:22:45;;;;;;;2.37;2.10;;;25.00;99.90;;;;;;5005596;28;20433;-78
2021/09/04 12:25:31;;;;;;;2.90;2.60;;;24.90;99.90;;;;;;5008240;28;20504;-79
2021/09/04 12:28:06;;;;;;;3.77;2.10;;;24.90;99.90;;;;;;4989414;28;20439;-79
2021/09/04 12:30:36;;;;;;;2.33;2.13;;;25.00;99.90;;;;;;5001958;28;20499;-80
2021/09/04 12:33:10;;;;;;;2.40;2.20;;;25.00;99.90;;;;;;5007990;28;21072;-79
2021/09/04 12:35:54;;;;;;;3.07;2.63;;;25.10;99.90;;;;;;5008700;28;20456;-80
2021/09/04 12:38:25;;;;;;;3.00;2.33;;;25.10;99.90;;;;;;5009038;28;20457;-80
2021/09/04 12:41:01;;;;;;;3.60;2.43;;;25.10;99.90;;;;;;5007312;28;20546;-79
2021/09/04 12:43:30;;;;;;;1.80;1.70;;;25.10;99.90;;;;;;5009983;28;20449;-79
2021/09/04 12:46:02;;;;;;;2.07;1.87;;;25.20;99.90;;;;;;5007718;28;20461;-79
2021/09/04 12:48:32;;;;;;;3.23;3.03;;;25.20;99.90;;;;;;5008789;28;20463;-80
2021/09/04 12:51:14;;;;;;;3.47;2.20;;;25.20;99.90;;;;;;5004609;28;21311;-79
2021/09/04 12:53:42;;;;;;;2.70;2.50;;;25.20;99.90;;;;;;5009005;28;20481;-79
2021/09/04 12:56:11;;;;;;;2.50;2.30;;;25.20;99.90;;;;;;5007452;28;20500;-79
2021/09/04 12:59:03;;;;;;;2.50;2.30;;;25.20;99.90;;;;;;5007770;28;20469;-78
2021/09/04 13:01:31;;;;;;;2.73;2.53;;;25.30;99.90;;;;;;5004131;28;20465;-78
2021/09/04 13:04:04;;;;;;;2.73;2.27;;;25.30;99.90;;;;;;5008553;28;20529;-78